New Wren, Mississippi
Current Conditions -  °F | °C
As of 3:15 PM on Sunday 23 Nov 2014 (Local Time) from KM40 Reporting Station
Haze Haze  
Wind Chill: 66°   Ceiling: 3100
Heat Index: 66°   Visibility: 5mi
Dew Point: 50°   Wind: 12mph
Humidity: 56%   Direction: 180°S
Pressure: 29.44"   Gusts: 20mph
Location:  33.8251°N, 88.6185°W
Report Text: KM40 232115Z AUTO 18010G17KT 5SM HZ FEW001 BKN031 OVC050 19/10 A2944 RMK AO2
Loading
Personal Weather Stations






























Interactive Weather Map New forecast layout! Learn more

10-Day Weather Forecast

Advertisements
Track Severe Weather on mobile